Time;durP1;ratioP1;P1;durP2;ratioP2;P2;SDS_P1;SDS_P2;PMS_P1;PMS_P2;Temp;Humidity;BMP_temperature;BMP_pressure;BME280_temperature;BME280_humidity;BME280_pressure;Samples;Min_cycle;Max_cycle;Signal;HPM_P1;HPM_P2
2022/04/18 00:01:18;;;;;;;1.65;1.33;;;;;;;;;;5126774;28;20074;-44
2022/04/18 00:03:43;;;;;;;1.67;0.93;;;;;;;;;;5125911;28;20600;-43
2022/04/18 00:06:09;;;;;;;2.38;1.60;;;;;;;;;;5125831;28;20042;-42
2022/04/18 00:08:34;;;;;;;4.53;1.38;;;;;;;;;;5126182;28;20045;-44
2022/04/18 00:11:00;;;;;;;11.95;2.13;;;;;;;;;;5125172;28;20047;-43
2022/04/18 00:13:26;;;;;;;3.05;1.10;;;;;;;;;;5126544;28;20050;-45
2022/04/18 00:15:51;;;;;;;3.17;1.63;;;;;;;;;;5124939;28;20593;-49
2022/04/18 00:18:17;;;;;;;15.45;1.83;;;;;;;;;;5126326;28;20078;-41
2022/04/18 00:20:42;;;;;;;1.58;1.10;;;;;;;;;;5125401;28;20131;-41
2022/04/18 00:23:07;;;;;;;2.17;1.30;;;;;;;;;;5126017;28;20410;-40
2022/04/18 00:25:33;;;;;;;2.25;1.52;;;;;;;;;;5126184;28;20055;-43
2022/04/18 00:27:58;;;;;;;5.63;2.58;;;;;;;;;;5126236;28;20129;-40
2022/04/18 00:30:23;;;;;;;7.22;1.67;;;;;;;;;;5126001;28;20046;-40
2022/04/18 00:32:49;;;;;;;3.25;2.03;;;;;;;;;;5125111;28;20050;-43
2022/04/18 00:35:14;;;;;;;13.55;2.92;;;;;;;;;;5125164;28;20455;-44
2022/04/18 00:37:40;;;;;;;3.25;2.28;;;;;;;;;;5125285;28;20051;-43
2022/04/18 00:40:06;;;;;;;3.78;1.58;;;;;;;;;;5125742;28;20062;-40
2022/04/18 00:42:32;;;;;;;3.15;2.05;;;;;;;;;;5125856;28;20514;-41
2022/04/18 00:44:57;;;;;;;4.47;2.42;;;;;;;;;;5125482;28;20115;-43
2022/04/18 00:47:22;;;;;;;2.55;1.88;;;;;;;;;;5125796;28;20066;-42
2022/04/18 00:49:48;;;;;;;5.80;2.65;;;;;;;;;;5125842;28;20101;-42
2022/04/18 00:52:13;;;;;;;3.60;2.28;;;;;;;;;;5125986;28;20130;-44
2022/04/18 00:54:41;;;;;;;8.52;2.20;;;;;;;;;;5124106;28;20062;-44
2022/04/18 00:57:06;;;;;;;4.38;1.95;;;;;;;;;;5125137;28;20039;-42
2022/04/18 00:59:32;;;;;;;2.65;1.48;;;;;;;;;;5125341;27;20047;-43
2022/04/18 01:01:57;;;;;;;5.65;1.80;;;;;;;;;;5125671;28;20562;-40
2022/04/18 01:04:23;;;;;;;2.95;1.52;;;;;;;;;;5125642;28;20047;-42
2022/04/18 01:06:48;;;;;;;2.72;1.80;;;;;;;;;;5126132;28;20096;-41
2022/04/18 01:09:14;;;;;;;5.22;1.88;;;;;;;;;;5125724;28;20092;-44
2022/04/18 01:11:40;;;;;;;4.70;2.40;;;;;;;;;;5125509;28;20113;-43
2022/04/18 01:14:06;;;;;;;2.75;1.42;;;;;;;;;;5106948;28;20364;-46
2022/04/18 01:16:31;;;;;;;5.85;2.03;;;;;;;;;;5126097;28;20498;-43
2022/04/18 01:18:57;;;;;;;6.47;2.38;;;;;;;;;;5126559;28;20047;-43
2022/04/18 01:21:23;;;;;;;3.95;3.00;;;;;;;;;;5125886;28;20050;-43
2022/04/18 01:23:49;;;;;;;2.92;2.63;;;;;;;;;;5126190;28;20042;-43
2022/04/18 01:28:58;;;;;;;4.70;2.47;;;;;;;;;;5126224;28;20033;-44
2022/04/18 01:31:24;;;;;;;3.63;2.13;;;;;;;;;;5126061;28;20043;-44
2022/04/18 01:33:49;;;;;;;9.95;2.33;;;;;;;;;;5126184;28;20152;-48
2022/04/18 01:36:15;;;;;;;4.00;2.85;;;;;;;;;;5126474;28;20100;-47
2022/04/18 01:38:40;;;;;;;2.60;1.92;;;;;;;;;;5125938;28;20083;-42
2022/04/18 01:41:06;;;;;;;3.92;2.60;;;;;;;;;;5126725;28;20096;-44
2022/04/18 01:43:33;;;;;;;3.40;2.40;;;;;;;;;;5125671;28;20418;-41
2022/04/18 01:46:01;;;;;;;3.05;2.10;;;;;;;;;;5125402;28;20077;-42
2022/04/18 01:48:29;;;;;;;3.05;2.00;;;;;;;;;;5125731;28;20051;-46
2022/04/18 01:50:55;;;;;;;9.52;3.28;;;;;;;;;;5125642;28;20057;-44
2022/04/18 01:53:20;;;;;;;9.75;3.50;;;;;;;;;;5125252;28;20369;-44
2022/04/18 01:55:45;;;;;;;2.70;2.42;;;;;;;;;;5125529;28;20031;-44
2022/04/18 01:58:11;;;;;;;3.15;2.58;;;;;;;;;;5124424;28;20351;-44
2022/04/18 02:00:36;;;;;;;5.03;3.35;;;;;;;;;;5125681;28;20150;-46
2022/04/18 02:03:02;;;;;;;4.40;2.70;;;;;;;;;;5125382;28;20138;-43
2022/04/18 02:05:27;;;;;;;4.43;2.10;;;;;;;;;;5125819;28;20039;-42
2022/04/18 02:07:56;;;;;;;9.40;2.70;;;;;;;;;;5125815;28;20035;-42
2022/04/18 02:10:21;;;;;;;4.25;2.58;;;;;;;;;;5125177;28;20096;-43
2022/04/18 02:12:46;;;;;;;6.68;2.85;;;;;;;;;;5127085;27;20047;-42
2022/04/18 02:15:12;;;;;;;4.00;2.88;;;;;;;;;;5129109;28;20039;-41
2022/04/18 02:17:37;;;;;;;4.50;2.60;;;;;;;;;;5129416;28;20121;-45
2022/04/18 02:20:05;;;;;;;3.22;1.77;;;;;;;;;;5129203;28;20085;-44
2022/04/18 02:22:34;;;;;;;3.83;2.33;;;;;;;;;;5128732;28;20085;-42
2022/04/18 02:25:02;;;;;;;8.77;2.22;;;;;;;;;;5129243;28;20039;-44
2022/04/18 02:27:28;;;;;;;7.78;2.90;;;;;;;;;;5127188;28;20099;-50
2022/04/18 02:29:53;;;;;;;2.45;2.05;;;;;;;;;;5129104;28;20051;-41
2022/04/18 02:35:06;;;;;;;5.38;3.30;;;;;;;;;;5128779;28;20054;-44
2022/04/18 02:37:31;;;;;;;3.75;2.13;;;;;;;;;;5128321;28;20078;-41
2022/04/18 02:39:59;;;;;;;4.82;2.25;;;;;;;;;;5129271;28;20067;-44
2022/04/18 02:42:24;;;;;;;3.78;2.47;;;;;;;;;;5128695;28;20042;-41
2022/04/18 02:44:50;;;;;;;6.38;3.72;;;;;;;;;;5128619;28;20059;-44
2022/04/18 02:47:15;;;;;;;7.30;3.90;;;;;;;;;;5127702;28;20047;-42
2022/04/18 02:49:40;;;;;;;3.15;2.28;;;;;;;;;;5128126;28;20062;-43
2022/04/18 02:52:06;;;;;;;5.22;3.08;;;;;;;;;;5128442;28;20126;-41
2022/04/18 02:54:31;;;;;;;5.85;3.42;;;;;;;;;;5128522;28;20051;-43
2022/04/18 02:56:57;;;;;;;5.32;2.20;;;;;;;;;;5128676;28;20046;-45
2022/04/18 02:59:22;;;;;;;8.85;3.42;;;;;;;;;;5128274;28;20448;-44
2022/04/18 03:01:48;;;;;;;6.30;2.97;;;;;;;;;;5128040;28;20050;-45
2022/04/18 03:04:13;;;;;;;7.50;3.60;;;;;;;;;;5128245;28;20058;-42
2022/04/18 03:06:38;;;;;;;2.92;2.17;;;;;;;;;;5128356;28;20558;-45
2022/04/18 03:09:04;;;;;;;7.00;3.38;;;;;;;;;;5128136;28;20035;-42
2022/04/18 03:11:29;;;;;;;4.47;2.92;;;;;;;;;;5127049;28;20039;-45
2022/04/18 03:13:55;;;;;;;2.70;1.92;;;;;;;;;;5128298;28;20106;-40
2022/04/18 03:16:21;;;;;;;2.42;2.05;;;;;;;;;;5128309;28;20091;-43
2022/04/18 03:18:46;;;;;;;4.10;2.47;;;;;;;;;;5128066;28;20046;-43
2022/04/18 03:21:13;;;;;;;9.15;1.40;;;;;;;;;;5128155;28;20663;-42
2022/04/18 03:23:44;;;;;;;3.13;2.08;;;;;;;;;;5127429;27;20051;-43
2022/04/18 03:26:09;;;;;;;14.63;2.42;;;;;;;;;;5128163;28;20051;-49
2022/04/18 03:28:34;;;;;;;3.17;2.20;;;;;;;;;;5128064;28;20180;-43
2022/04/18 03:31:00;;;;;;;4.35;3.42;;;;;;;;;;5128414;28;20043;-45
2022/04/18 03:33:25;;;;;;;3.22;2.22;;;;;;;;;;5128081;28;20155;-43
2022/04/18 03:41:18;;;;;;;5.32;3.35;;;;;;;;;;5127913;28;20050;-43
2022/04/18 03:43:43;;;;;;;3.60;2.38;;;;;;;;;;5128154;28;20051;-42
2022/04/18 03:46:09;;;;;;;7.65;3.92;;;;;;;;;;5127671;28;20050;-47
2022/04/18 03:48:34;;;;;;;9.20;4.25;;;;;;;;;;5127522;28;20132;-42
2022/04/18 03:51:00;;;;;;;6.43;4.35;;;;;;;;;;5127632;28;20486;-43
2022/04/18 03:53:25;;;;;;;7.40;5.05;;;;;;;;;;5126907;28;20486;-44
2022/04/18 03:55:50;;;;;;;3.67;3.05;;;;;;;;;;5127421;28;20063;-42
2022/04/18 03:58:16;;;;;;;6.93;4.32;;;;;;;;;;5127344;28;20130;-44
2022/04/18 04:00:42;;;;;;;7.32;3.38;;;;;;;;;;5128089;28;20431;-46
2022/04/18 04:03:11;;;;;;;5.15;4.18;;;;;;;;;;5127299;28;20046;-44
2022/04/18 04:05:36;;;;;;;5.70;4.45;;;;;;;;;;5126758;28;20489;-41
2022/04/18 04:08:02;;;;;;;4.35;3.70;;;;;;;;;;5126264;28;20043;-44
2022/04/18 04:10:27;;;;;;;6.97;2.97;;;;;;;;;;5126959;28;20130;-44
2022/04/18 04:12:53;;;;;;;5.25;3.58;;;;;;;;;;5127656;28;20410;-43
2022/04/18 04:15:18;;;;;;;6.00;3.92;;;;;;;;;;5127562;28;20035;-46
2022/04/18 04:17:44;;;;;;;6.00;4.80;;;;;;;;;;5126869;28;20161;-44
2022/04/18 04:20:09;;;;;;;10.95;4.75;;;;;;;;;;5127369;28;20043;-41
2022/04/18 04:22:35;;;;;;;10.43;4.80;;;;;;;;;;5127071;28;20494;-47
2022/04/18 04:25:00;;;;;;;4.65;3.83;;;;;;;;;;5126064;28;20505;-44
2022/04/18 04:27:26;;;;;;;5.88;3.67;;;;;;;;;;5126863;28;20050;-42
2022/04/18 04:29:51;;;;;;;3.20;2.20;;;;;;;;;;5127279;28;20043;-46
2022/04/18 04:32:16;;;;;;;3.15;2.33;;;;;;;;;;5127223;28;20043;-43
2022/04/18 04:34:42;;;;;;;2.92;2.60;;;;;;;;;;5125869;27;20043;-44
2022/04/18 04:37:08;;;;;;;2.92;2.38;;;;;;;;;;5126719;28;20498;-42
2022/04/18 04:39:33;;;;;;;4.25;3.53;;;;;;;;;;5126225;28;20104;-48
2022/04/18 04:41:59;;;;;;;3.45;2.25;;;;;;;;;;5126867;28;20104;-44
2022/04/18 04:44:24;;;;;;;8.45;3.95;;;;;;;;;;5126146;28;20506;-42
2022/04/18 04:46:50;;;;;;;4.93;3.17;;;;;;;;;;5126883;28;20112;-45
2022/04/18 04:49:16;;;;;;;4.90;3.38;;;;;;;;;;5126251;28;20589;-46
2022/04/18 04:51:42;;;;;;;28.95;4.15;;;;;;;;;;5126650;28;20118;-43
2022/04/18 04:54:08;;;;;;;3.58;2.53;;;;;;;;;;5126591;28;20097;-41
2022/04/18 04:56:33;;;;;;;2.88;2.10;;;;;;;;;;5126312;28;20704;-45
2022/04/18 04:58:59;;;;;;;2.55;2.08;;;;;;;;;;5126535;28;20120;-44
2022/04/18 05:01:25;;;;;;;3.85;1.90;;;;;;;;;;5126624;28;20051;-45
2022/04/18 05:03:51;;;;;;;2.97;2.30;;;;;;;;;;5125863;28;20038;-44
2022/04/18 05:06:16;;;;;;;4.22;2.45;;;;;;;;;;5125517;28;20540;-42
2022/04/18 05:08:42;;;;;;;10.93;2.75;;;;;;;;;;5125925;28;20035;-46
2022/04/18 05:11:07;;;;;;;2.97;2.28;;;;;;;;;;5125636;28;20530;-42
2022/04/18 05:13:33;;;;;;;4.68;3.33;;;;;;;;;;5124481;28;20762;-46
2022/04/18 05:15:58;;;;;;;5.50;3.17;;;;;;;;;;5125762;28;20050;-47
2022/04/18 05:18:23;;;;;;;21.40;3.78;;;;;;;;;;5126295;28;20195;-43
2022/04/18 05:20:49;;;;;;;2.90;2.63;;;;;;;;;;5126076;28;20078;-47
2022/04/18 05:23:20;;;;;;;3.03;2.67;;;;;;;;;;5126444;28;20038;-46
2022/04/18 05:25:45;;;;;;;5.63;2.20;;;;;;;;;;5126205;28;20053;-43
2022/04/18 05:28:10;;;;;;;5.03;2.88;;;;;;;;;;5126449;28;20047;-44
2022/04/18 05:30:39;;;;;;;2.80;1.63;;;;;;;;;;5125297;28;20043;-43
2022/04/18 05:33:05;;;;;;;3.40;2.45;;;;;;;;;;5124192;28;20137;-47
2022/04/18 05:35:31;;;;;;;7.13;2.90;;;;;;;;;;5126157;28;20118;-42
2022/04/18 05:37:56;;;;;;;9.65;2.83;;;;;;;;;;5126099;28;20450;-42
2022/04/18 05:40:22;;;;;;;8.10;3.28;;;;;;;;;;5125711;28;20506;-46
2022/04/18 05:42:47;;;;;;;6.22;3.05;;;;;;;;;;5125714;28;20099;-47
2022/04/18 05:45:12;;;;;;;4.03;3.38;;;;;;;;;;5125633;28;20126;-45
2022/04/18 05:47:38;;;;;;;3.65;2.65;;;;;;;;;;5110087;28;20095;-45
2022/04/18 05:50:04;;;;;;;6.55;2.45;;;;;;;;;;5130169;28;20095;-43
2022/04/18 05:52:29;;;;;;;4.05;2.97;;;;;;;;;;5130101;28;20050;-44
2022/04/18 05:54:55;;;;;;;12.98;2.85;;;;;;;;;;5129613;28;20134;-41
2022/04/18 05:57:21;;;;;;;9.75;3.53;;;;;;;;;;5128638;28;20534;-44
2022/04/18 05:59:47;;;;;;;5.35;2.90;;;;;;;;;;5128760;28;20085;-46
2022/04/18 06:02:12;;;;;;;8.20;3.35;;;;;;;;;;5129444;28;20067;-41
2022/04/18 06:04:39;;;;;;;5.72;2.70;;;;;;;;;;5128228;28;20542;-45
2022/04/18 06:07:05;;;;;;;10.82;9.93;;;;;;;;;;5128838;28;20055;-43
2022/04/18 06:09:30;;;;;;;8.32;5.68;;;;;;;;;;5128396;28;20505;-42
2022/04/18 06:11:56;;;;;;;3.28;2.78;;;;;;;;;;5129142;28;20031;-42
2022/04/18 06:14:21;;;;;;;3.85;2.88;;;;;;;;;;5129449;28;20130;-41
2022/04/18 06:16:46;;;;;;;4.75;4.28;;;;;;;;;;5128847;28;20090;-42
2022/04/18 06:19:12;;;;;;;4.88;3.72;;;;;;;;;;5129328;28;20540;-41
2022/04/18 06:21:37;;;;;;;19.08;3.70;;;;;;;;;;5128930;28;20574;-44
2022/04/18 06:24:03;;;;;;;14.40;5.00;;;;;;;;;;5127243;28;20043;-44
2022/04/18 06:26:28;;;;;;;20.88;5.72;;;;;;;;;;5127934;28;20046;-46
2022/04/18 06:28:54;;;;;;;6.10;5.00;;;;;;;;;;5118905;28;20035;-44
2022/04/18 06:31:19;;;;;;;3.42;2.83;;;;;;;;;;5125957;28;20115;-42
2022/04/18 06:33:45;;;;;;;17.95;4.32;;;;;;;;;;5126006;28;20099;-43
2022/04/18 06:36:10;;;;;;;6.15;3.08;;;;;;;;;;5125933;28;20074;-46
2022/04/18 06:38:35;;;;;;;12.18;4.07;;;;;;;;;;5123991;28;20512;-45
2022/04/18 06:41:02;;;;;;;17.92;6.53;;;;;;;;;;5125979;28;20054;-44
2022/04/18 06:43:27;;;;;;;12.57;5.65;;;;;;;;;;5122771;28;20066;-42
2022/04/18 06:45:53;;;;;;;5.55;4.40;;;;;;;;;;5124873;28;20035;-44
2022/04/18 06:48:19;;;;;;;8.05;5.75;;;;;;;;;;5124227;28;20078;-44
2022/04/18 06:50:45;;;;;;;10.82;7.05;;;;;;;;;;5122947;28;20043;-44
2022/04/18 06:53:11;;;;;;;11.88;9.10;;;;;;;;;;5125062;28;20059;-43
2022/04/18 06:58:21;;;;;;;14.35;7.93;;;;;;;;;;5122249;27;20046;-45
2022/04/18 07:00:46;;;;;;;10.68;8.00;;;;;;;;;;5124949;28;20054;-45
2022/04/18 07:03:12;;;;;;;19.48;8.85;;;;;;;;;;5106989;28;20801;-44
2022/04/18 07:05:39;;;;;;;18.88;7.95;;;;;;;;;;5125171;28;20059;-40
2022/04/18 07:08:04;;;;;;;9.77;7.47;;;;;;;;;;5124196;28;20039;-45
2022/04/18 07:10:30;;;;;;;22.52;8.52;;;;;;;;;;5122991;28;20043;-46
2022/04/18 07:12:55;;;;;;;8.00;5.63;;;;;;;;;;5125951;28;20043;-43
2022/04/18 07:15:21;;;;;;;9.05;6.63;;;;;;;;;;5124077;28;20099;-40
2022/04/18 07:17:46;;;;;;;17.55;11.05;;;;;;;;;;5123896;28;20568;-42
2022/04/18 07:20:11;;;;;;;29.35;16.83;;;;;;;;;;5124104;28;20047;-43
2022/04/18 07:22:38;;;;;;;14.70;13.20;;;;;;;;;;5124872;28;20051;-46
2022/04/18 07:25:04;;;;;;;20.98;12.63;;;;;;;;;;5124225;28;20051;-49
2022/04/18 07:27:29;;;;;;;15.63;9.45;;;;;;;;;;5123590;28;20541;-44
2022/04/18 07:29:55;;;;;;;10.35;8.50;;;;;;;;;;5123851;28;20043;-46
2022/04/18 07:32:21;;;;;;;12.75;11.18;;;;;;;;;;5123996;28;20047;-43
2022/04/18 07:34:47;;;;;;;26.05;17.52;;;;;;;;;;5124879;28;20119;-46
2022/04/18 07:37:12;;;;;;;27.70;23.25;;;;;;;;;;5123834;28;20490;-45
2022/04/18 07:39:38;;;;;;;24.10;21.50;;;;;;;;;;5123593;28;20042;-42
2022/04/18 07:42:03;;;;;;;16.80;15.30;;;;;;;;;;5124907;28;20127;-43
2022/04/18 07:44:29;;;;;;;16.80;14.68;;;;;;;;;;5125017;28;20039;-42
2022/04/18 07:46:55;;;;;;;12.55;9.90;;;;;;;;;;5121727;28;20039;-41
2022/04/18 07:49:20;;;;;;;16.63;10.75;;;;;;;;;;5122995;28;20131;-40
2022/04/18 07:51:45;;;;;;;8.93;7.85;;;;;;;;;;5121646;28;20035;-40
2022/04/18 07:54:14;;;;;;;11.40;6.43;;;;;;;;;;5122877;28;20151;-41
2022/04/18 07:56:43;;;;;;;8.18;6.72;;;;;;;;;;5120262;28;20187;-42
2022/04/18 07:59:09;;;;;;;18.20;6.93;;;;;;;;;;5123510;28;20061;-43
2022/04/18 08:01:35;;;;;;;9.38;6.93;;;;;;;;;;5120354;28;20058;-45
2022/04/18 08:04:01;;;;;;;14.57;6.28;;;;;;;;;;5121361;28;20043;-41
2022/04/18 08:06:27;;;;;;;8.95;8.02;;;;;;;;;;5124347;28;20494;-43
2022/04/18 08:08:52;;;;;;;14.75;9.48;;;;;;;;;;5121946;27;20096;-40
2022/04/18 08:11:18;;;;;;;11.98;6.70;;;;;;;;;;5119690;28;20071;-41
2022/04/18 08:13:44;;;;;;;13.95;8.32;;;;;;;;;;5120223;28;20516;-41
2022/04/18 08:16:10;;;;;;;9.07;7.53;;;;;;;;;;5120971;28;20046;-39
2022/04/18 08:18:38;;;;;;;11.70;7.57;;;;;;;;;;5121415;28;20181;-45
2022/04/18 08:21:03;;;;;;;10.40;8.35;;;;;;;;;;5120950;28;20046;-39
2022/04/18 08:23:29;;;;;;;13.93;5.82;;;;;;;;;;5119631;27;20762;-40
2022/04/18 08:25:55;;;;;;;7.60;6.38;;;;;;;;;;5123077;28;20092;-41
2022/04/18 08:28:20;;;;;;;15.93;9.27;;;;;;;;;;5122315;28;20062;-41
2022/04/18 08:30:46;;;;;;;6.60;4.22;;;;;;;;;;5120494;28;20166;-41
2022/04/18 08:33:11;;;;;;;12.63;6.65;;;;;;;;;;5121975;28;20066;-41
2022/04/18 08:35:36;;;;;;;4.93;3.80;;;;;;;;;;5124261;28;20047;-41
2022/04/18 08:38:02;;;;;;;13.57;6.32;;;;;;;;;;5123688;28;20103;-48
2022/04/18 08:40:27;;;;;;;6.80;5.93;;;;;;;;;;5124062;28;20051;-43
2022/04/18 08:42:54;;;;;;;11.43;7.68;;;;;;;;;;5122990;28;20138;-43
2022/04/18 08:45:23;;;;;;;5.75;4.22;;;;;;;;;;5123363;28;20058;-44
2022/04/18 08:53:19;;;;;;;5.93;3.60;;;;;;;;;;5123528;28;20065;-44
2022/04/18 08:55:45;;;;;;;16.55;5.43;;;;;;;;;;5123483;28;20498;-45
2022/04/18 08:58:12;;;;;;;4.05;1.15;;;;;;;;;;5122603;28;20054;-44
2022/04/18 09:00:38;;;;;;;7.93;2.00;;;;;;;;;;5123741;28;20156;-42
2022/04/18 09:03:03;;;;;;;4.82;2.53;;;;;;;;;;5123629;28;20458;-41
2022/04/18 09:05:34;;;;;;;5.93;1.80;;;;;;;;;;5123200;28;20046;-40
2022/04/18 09:08:00;;;;;;;;;;;;;;;;;;5123299;28;20031;-43
2022/04/18 09:10:25;;;;;;;5.00;1.60;;;;;;;;;;5123248;28;19915;-43
2022/04/18 09:12:51;;;;;;;1.95;1.30;;;;;;;;;;5122733;28;20050;-44
2022/04/18 09:15:37;;;;;;;13.00;2.08;;;;;;;;;;5123361;28;20692;-40
2022/04/18 09:18:10;;;;;;;6.05;2.05;;;;;;;;;;5121543;27;20055;-44
2022/04/18 09:20:43;;;;;;;5.63;3.25;;;;;;;;;;5121739;27;20126;-43
2022/04/18 09:23:22;;;;;;;9.05;2.60;;;;;;;;;;5121759;28;20137;-44
2022/04/18 09:25:53;;;;;;;9.57;3.08;;;;;;;;;;5122295;28;20207;-42
2022/04/18 09:28:21;;;;;;;12.25;3.92;;;;;;;;;;5123060;28;20051;-44
2022/04/18 09:30:55;;;;;;;6.95;3.65;;;;;;;;;;5121950;28;20445;-42
2022/04/18 09:33:20;;;;;;;6.22;3.63;;;;;;;;;;5123195;28;20142;-42
2022/04/18 09:35:46;;;;;;;7.10;3.80;;;;;;;;;;5123287;28;20486;-42
2022/04/18 09:38:11;;;;;;;4.13;2.28;;;;;;;;;;5123871;28;20039;-47
2022/04/18 09:40:37;;;;;;;8.38;4.55;;;;;;;;;;5123617;28;20096;-46
2022/04/18 09:43:02;;;;;;;8.88;4.32;;;;;;;;;;5121401;28;20055;-40
2022/04/18 09:45:28;;;;;;;10.45;3.08;;;;;;;;;;5123079;28;20380;-40
2022/04/18 09:48:01;;;;;;;4.80;2.10;;;;;;;;;;5123442;28;20553;-43
2022/04/18 09:53:21;;;;;;;9.18;4.00;;;;;;;;;;5121801;28;20076;-40
2022/04/18 09:55:47;;;;;;;6.70;4.95;;;;;;;;;;5119519;28;20055;-43
2022/04/18 09:58:13;;;;;;;13.48;3.75;;;;;;;;;;5122086;28;20622;-45
2022/04/18 10:00:38;;;;;;;7.28;3.75;;;;;;;;;;5122582;28;20061;-45
2022/04/18 10:03:04;;;;;;;7.78;4.32;;;;;;;;;;5123572;28;20068;-40
2022/04/18 10:05:30;;;;;;;8.05;4.40;;;;;;;;;;5121880;28;20047;-42
2022/04/18 10:07:56;;;;;;;5.28;3.17;;;;;;;;;;5120846;28;20043;-43
2022/04/18 10:10:22;;;;;;;8.60;3.58;;;;;;;;;;5119669;28;20116;-46
2022/04/18 10:12:49;;;;;;;2.13;1.00;;;;;;;;;;5122110;28;20047;-43
2022/04/18 10:15:14;;;;;;;3.35;2.33;;;;;;;;;;5122020;28;20054;-40
2022/04/18 10:17:41;;;;;;;4.47;2.00;;;;;;;;;;5121334;28;20070;-44
2022/04/18 10:20:36;;;;;;;2.78;1.73;;;;;;;;;;5121414;28;20066;-41
2022/04/18 10:23:03;;;;;;;2.30;1.33;;;;;;;;;;5017734;28;20058;-43
2022/04/18 10:25:34;;;;;;;7.28;3.50;;;;;;;;;;5120442;28;20179;-43
2022/04/18 10:28:00;;;;;;;11.45;6.35;;;;;;;;;;5121415;28;20043;-45
2022/04/18 10:30:26;;;;;;;27.92;20.85;;;;;;;;;;5121413;28;20095;-43
2022/04/18 10:32:52;;;;;;;18.83;13.60;;;;;;;;;;5122477;27;20455;-41
2022/04/18 10:35:21;;;;;;;13.60;6.28;;;;;;;;;;5124574;28;20221;-43
2022/04/18 10:37:51;;;;;;;15.98;5.45;;;;;;;;;;5125001;28;20155;-41
2022/04/18 10:40:19;;;;;;;12.05;4.78;;;;;;;;;;5124595;28;20063;-41
2022/04/18 10:42:45;;;;;;;4.93;2.55;;;;;;;;;;5124118;28;20793;-43
2022/04/18 10:45:17;;;;;;;3.33;1.58;;;;;;;;;;5123527;28;20146;-45
2022/04/18 10:47:55;;;;;;;5.80;2.50;;;;;;;;;;5124258;28;20053;-46
2022/04/18 10:50:21;;;;;;;5.20;2.20;;;;;;;;;;5123749;28;20050;-46
2022/04/18 10:53:06;;;;;;;5.07;1.80;;;;;;;;;;5125469;28;20046;-46
2022/04/18 10:55:31;;;;;;;3.40;2.03;;;;;;;;;;5122393;28;20043;-46
2022/04/18 10:58:14;;;;;;;4.70;2.83;;;;;;;;;;5124508;28;20047;-48
2022/04/18 11:00:48;;;;;;;6.03;1.95;;;;;;;;;;5125028;28;20050;-46
2022/04/18 11:03:14;;;;;;;8.75;2.15;;;;;;;;;;5124459;28;20104;-45
2022/04/18 11:05:40;;;;;;;6.47;3.70;;;;;;;;;;5124356;28;20058;-49
2022/04/18 11:08:24;;;;;;;3.03;1.27;;;;;;;;;;5123841;28;20055;-44
2022/04/18 11:10:49;;;;;;;13.25;3.15;;;;;;;;;;5123769;28;20509;-40
2022/04/18 11:13:15;;;;;;;5.00;2.42;;;;;;;;;;5125411;28;20050;-44
2022/04/18 11:15:40;;;;;;;3.28;1.45;;;;;;;;;;5125042;28;20224;-45
2022/04/18 11:18:08;;;;;;;3.53;2.10;;;;;;;;;;5124634;28;20055;-45
2022/04/18 11:20:35;;;;;;;3.10;1.55;;;;;;;;;;5124025;27;20051;-43
2022/04/18 11:23:17;;;;;;;6.97;2.80;;;;;;;;;;5122592;28;20721;-46
2022/04/18 11:25:59;;;;;;;3.50;1.98;;;;;;;;;;5124184;28;20141;-43
2022/04/18 11:28:30;;;;;;;7.07;3.65;;;;;;;;;;5123320;28;20047;-48
2022/04/18 11:30:56;;;;;;;1.27;0.70;;;;;;;;;;5124116;28;20035;-46
2022/04/18 11:33:21;;;;;;;1.85;0.93;;;;;;;;;;5124514;28;20111;-46
2022/04/18 11:35:47;;;;;;;2.85;0.60;;;;;;;;;;5124769;28;20126;-43
2022/04/18 11:38:13;;;;;;;5.43;2.85;;;;;;;;;;5124064;28;20075;-45
2022/04/18 11:40:39;;;;;;;6.65;1.30;;;;;;;;;;5123672;28;20695;-45
2022/04/18 11:43:11;;;;;;;7.63;3.38;;;;;;;;;;5122997;28;20057;-45
2022/04/18 11:45:37;;;;;;;1.02;0.55;;;;;;;;;;5123684;27;20506;-46
2022/04/18 11:48:04;;;;;;;3.00;1.55;;;;;;;;;;5124076;28;20038;-46
2022/04/18 11:50:30;;;;;;;4.72;1.80;;;;;;;;;;5122629;28;20050;-40
2022/04/18 11:53:02;;;;;;;3.60;1.80;;;;;;;;;;5121440;28;20076;-43
2022/04/18 11:55:28;;;;;;;2.35;1.00;;;;;;;;;;5122813;28;20451;-41
2022/04/18 11:57:53;;;;;;;3.47;1.33;;;;;;;;;;5123094;28;20130;-42
2022/04/18 12:08:34;;;;;;;9.05;2.22;;;;;;;;;;5121487;28;20134;-42
2022/04/18 12:11:00;;;;;;;5.80;1.70;;;;;;;;;;5123328;28;20130;-42
2022/04/18 12:13:26;;;;;;;2.83;1.00;;;;;;;;;;5114297;28;20035;-41
2022/04/18 12:15:51;;;;;;;2.20;1.35;;;;;;;;;;5122984;28;20042;-42
2022/04/18 12:18:18;;;;;;;1.75;1.00;;;;;;;;;;5124437;28;20636;-40
2022/04/18 12:20:47;;;;;;;3.50;1.35;;;;;;;;;;5125982;28;20489;-48
2022/04/18 12:23:17;;;;;;;1.77;1.17;;;;;;;;;;5125851;28;20051;-43
2022/04/18 12:25:49;;;;;;;7.57;1.63;;;;;;;;;;5123910;28;20043;-43
2022/04/18 12:28:16;;;;;;;2.35;1.08;;;;;;;;;;5124772;28;20035;-41
2022/04/18 12:30:41;;;;;;;2.47;1.85;;;;;;;;;;5124450;28;20171;-42
2022/04/18 12:33:26;;;;;;;4.40;0.70;;;;;;;;;;5124838;28;20126;-43
2022/04/18 12:35:51;;;;;;;1.80;0.80;;;;;;;;;;5123336;28;20051;-44
2022/04/18 12:38:17;;;;;;;0.43;0.40;;;;;;;;;;5124639;28;20059;-40
2022/04/18 12:40:44;;;;;;;16.25;5.63;;;;;;;;;;5123742;28;20053;-42
2022/04/18 12:43:14;;;;;;;0.55;0.43;;;;;;;;;;5124940;28;20054;-42
2022/04/18 12:45:50;;;;;;;6.53;0.70;;;;;;;;;;5124883;28;20051;-48
2022/04/18 12:48:21;;;;;;;1.95;1.50;;;;;;;;;;5125165;28;20519;-44
2022/04/18 12:50:47;;;;;;;9.82;2.35;;;;;;;;;;5124829;28;20043;-45
2022/04/18 12:53:12;;;;;;;3.05;2.33;;;;;;;;;;5124939;28;20035;-45
2022/04/18 12:55:38;;;;;;;7.10;4.13;;;;;;;;;;5123674;27;20919;-42
2022/04/18 12:58:13;;;;;;;8.43;4.75;;;;;;;;;;5125649;28;20679;-43
2022/04/18 13:00:38;;;;;;;2.28;1.30;;;;;;;;;;5125463;28;20079;-41
2022/04/18 13:03:05;;;;;;;1.65;1.08;;;;;;;;;;5125239;28;20129;-41
2022/04/18 13:05:40;;;;;;;7.85;1.75;;;;;;;;;;5124267;28;20035;-41
2022/04/18 13:08:06;;;;;;;6.65;3.50;;;;;;;;;;5125156;28;20042;-45
2022/04/18 13:10:32;;;;;;;5.03;0.80;;;;;;;;;;5125368;28;20130;-45
2022/04/18 13:13:02;;;;;;;3.42;1.13;;;;;;;;;;5125040;28;20031;-42
2022/04/18 13:15:27;;;;;;;15.38;2.33;;;;;;;;;;5125250;28;20450;-41
2022/04/18 13:17:57;;;;;;;4.25;2.20;;;;;;;;;;5124706;28;20156;-42
2022/04/18 13:20:22;;;;;;;3.95;1.83;;;;;;;;;;5124909;28;20071;-40
2022/04/18 13:22:48;;;;;;;3.70;2.15;;;;;;;;;;5124979;28;20097;-45
2022/04/18 13:25:13;;;;;;;2.78;1.45;;;;;;;;;;5124956;28;20447;-44
2022/04/18 13:27:40;;;;;;;3.00;1.50;;;;;;;;;;5125126;28;20051;-46
2022/04/18 13:30:06;;;;;;;1.30;0.63;;;;;;;;;;5124757;28;20031;-42
2022/04/18 13:32:32;;;;;;;4.82;1.27;;;;;;;;;;5124932;28;20126;-41
2022/04/18 13:34:57;;;;;;;1.73;0.90;;;;;;;;;;5124992;28;20047;-46
2022/04/18 13:37:22;;;;;;;1.55;1.02;;;;;;;;;;5125050;28;20112;-46
2022/04/18 13:39:48;;;;;;;0.90;0.60;;;;;;;;;;5125005;28;20517;-44
2022/04/18 13:42:14;;;;;;;2.25;1.08;;;;;;;;;;5124425;28;20047;-41
2022/04/18 13:44:39;;;;;;;7.15;2.63;;;;;;;;;;5125101;28;20157;-41
2022/04/18 13:47:05;;;;;;;3.58;2.35;;;;;;;;;;5125201;28;20035;-41
2022/04/18 13:49:30;;;;;;;4.55;2.25;;;;;;;;;;5124598;28;20110;-43
2022/04/18 13:51:55;;;;;;;4.90;2.92;;;;;;;;;;5102814;28;20046;-41
2022/04/18 13:54:21;;;;;;;7.15;2.13;;;;;;;;;;5124470;28;20105;-42
2022/04/18 13:56:46;;;;;;;4.88;2.47;;;;;;;;;;5122982;28;20168;-43
2022/04/18 13:59:12;;;;;;;2.38;1.42;;;;;;;;;;5124419;28;20039;-44
2022/04/18 14:01:38;;;;;;;7.75;2.60;;;;;;;;;;5125036;28;20050;-43
2022/04/18 14:04:03;;;;;;;4.55;2.33;;;;;;;;;;5124640;28;20043;-46
2022/04/18 14:06:29;;;;;;;2.22;1.42;;;;;;;;;;5124164;28;20495;-40
2022/04/18 14:08:56;;;;;;;5.82;3.75;;;;;;;;;;5125944;27;20502;-42
2022/04/18 14:11:21;;;;;;;6.68;1.95;;;;;;;;;;5127850;28;20047;-41
2022/04/18 14:13:47;;;;;;;4.70;1.95;;;;;;;;;;5127343;28;20058;-40
2022/04/18 14:21:41;;;;;;;11.23;6.72;;;;;;;;;;5126381;28;20074;-40
2022/04/18 14:24:06;;;;;;;15.73;7.10;;;;;;;;;;5128082;28;20139;-46
2022/04/18 14:26:32;;;;;;;5.00;1.77;;;;;;;;;;5127507;28;20043;-44
2022/04/18 14:28:58;;;;;;;1.70;0.95;;;;;;;;;;5128222;28;20051;-42
2022/04/18 14:31:23;;;;;;;5.90;1.42;;;;;;;;;;5127486;28;20609;-43
2022/04/18 14:33:49;;;;;;;5.40;3.55;;;;;;;;;;5126142;28;20071;-42
2022/04/18 14:36:19;;;;;;;7.28;2.38;;;;;;;;;;5126686;28;20043;-45
2022/04/18 14:38:44;;;;;;;4.05;2.45;;;;;;;;;;5126576;28;20039;-47
2022/04/18 14:41:09;;;;;;;4.72;3.15;;;;;;;;;;5126338;28;20134;-45
2022/04/18 14:43:35;;;;;;;4.47;2.47;;;;;;;;;;5126271;28;20507;-42
2022/04/18 14:46:00;;;;;;;7.70;4.25;;;;;;;;;;5126089;28;20108;-44
2022/04/18 14:48:26;;;;;;;10.35;5.85;;;;;;;;;;5127272;28;20090;-41
2022/04/18 14:50:51;;;;;;;7.75;5.43;;;;;;;;;;5105715;28;20112;-43
2022/04/18 14:53:17;;;;;;;6.47;3.95;;;;;;;;;;5126907;28;20046;-47
2022/04/18 14:55:42;;;;;;;7.53;3.97;;;;;;;;;;5126782;28;20037;-41
2022/04/18 14:58:07;;;;;;;4.25;1.90;;;;;;;;;;5127265;28;20043;-43
2022/04/18 15:00:33;;;;;;;8.80;2.80;;;;;;;;;;5126848;28;20062;-44
2022/04/18 15:02:59;;;;;;;3.80;1.33;;;;;;;;;;5127740;28;20042;-43
2022/04/18 15:05:25;;;;;;;1.88;1.40;;;;;;;;;;5126932;28;20084;-40
2022/04/18 15:07:50;;;;;;;3.75;2.42;;;;;;;;;;5127131;28;20039;-42
2022/04/18 15:10:16;;;;;;;1.60;1.00;;;;;;;;;;5126963;28;20032;-40
2022/04/18 15:12:42;;;;;;;2.53;1.55;;;;;;;;;;5126758;28;20051;-41